createdAt,value
2024-05-09T00:03:00.816Z,18.01
2024-05-09T00:06:04.241Z,18.19
2024-05-09T00:09:10.432Z,19.34
2024-05-09T00:12:14.156Z,19.20
2024-05-09T00:15:17.895Z,18.39
2024-05-09T00:18:21.386Z,18.12
2024-05-09T00:21:25.279Z,17.97
2024-05-09T00:24:28.526Z,18.52
2024-05-09T00:27:31.549Z,19.24
2024-05-09T00:30:36.983Z,19.56
2024-05-09T00:33:41.874Z,20.14
2024-05-09T00:36:45.814Z,20.51
2024-05-09T00:39:49.858Z,19.97
2024-05-09T00:42:55.966Z,18.66
2024-05-09T00:46:02.535Z,17.40
2024-05-09T00:49:06.764Z,16.48
2024-05-09T00:52:14.172Z,15.97
2024-05-09T00:55:18.309Z,15.76
2024-05-09T00:58:24.483Z,15.70
2024-05-09T01:01:28.008Z,15.27
2024-05-09T01:04:31.947Z,15.10
2024-05-09T01:07:36.087Z,15.02
2024-05-09T01:10:43.740Z,15.11
2024-05-09T01:13:51.832Z,14.93
2024-05-09T01:16:58.874Z,14.76
2024-05-09T01:20:05.746Z,15.00
2024-05-09T01:23:10.710Z,15.35
2024-05-09T01:26:14.044Z,15.65
2024-05-09T01:29:18.534Z,15.97
2024-05-09T01:32:21.879Z,16.14
2024-05-09T01:35:25.748Z,16.25
2024-05-09T01:38:29.757Z,16.46
2024-05-09T01:41:33.038Z,16.69
2024-05-09T01:44:39.131Z,16.84
2024-05-09T01:47:43.090Z,16.76
2024-05-09T01:50:47.198Z,17.03
2024-05-09T01:53:51.953Z,17.34
2024-05-09T01:56:58.939Z,17.34
2024-05-09T02:00:03.022Z,17.50
2024-05-09T02:03:16.736Z,17.77
2024-05-09T02:06:20.935Z,18.07
2024-05-09T02:09:28.558Z,18.45
2024-05-09T02:12:32.361Z,18.59
2024-05-09T02:15:35.558Z,19.00
2024-05-09T02:18:41.223Z,19.35
2024-05-09T02:21:45.288Z,19.76
2024-05-09T02:24:49.667Z,19.90
2024-05-09T02:27:53.889Z,20.21
2024-05-09T02:30:58.844Z,20.46
2024-05-09T02:34:02.217Z,20.42
2024-05-09T02:37:06.601Z,20.55
2024-05-09T02:40:14.616Z,20.82
2024-05-09T02:43:21.950Z,20.93
2024-05-09T02:46:25.781Z,20.71
2024-05-09T02:49:30.247Z,20.65
2024-05-09T02:52:34.119Z,20.29
2024-05-09T02:55:39.320Z,20.48
2024-05-09T02:58:43.366Z,20.49
2024-05-09T03:01:47.525Z,20.65
2024-05-09T03:04:51.488Z,20.59
2024-05-09T03:07:57.684Z,20.73
2024-05-09T03:11:01.660Z,20.82
2024-05-09T03:14:04.904Z,20.87
2024-05-09T03:17:08.847Z,21.00
2024-05-09T03:20:20.522Z,21.32
2024-05-09T03:23:30.664Z,21.75
2024-05-09T03:26:35.036Z,21.93
2024-05-09T03:29:38.240Z,21.90
2024-05-09T03:32:45.056Z,21.66
2024-05-09T03:35:49.749Z,21.31
2024-05-09T03:38:53.743Z,21.12
2024-05-09T03:42:00.184Z,21.18
2024-05-09T03:45:03.890Z,21.17
2024-05-09T03:48:08.463Z,21.32
2024-05-09T03:51:13.149Z,21.52
2024-05-09T03:54:19.388Z,21.42
2024-05-09T03:57:23.691Z,21.26
2024-05-09T04:00:35.504Z,21.32
2024-05-09T04:03:43.182Z,21.32
2024-05-09T04:06:46.326Z,20.84
2024-05-09T04:09:50.023Z,20.37
2024-05-09T04:12:57.864Z,20.35
2024-05-09T04:16:01.733Z,20.44
2024-05-09T04:19:06.267Z,20.61
2024-05-09T04:22:10.668Z,20.68
2024-05-09T04:25:15.351Z,20.80
2024-05-09T04:28:19.859Z,21.01
2024-05-09T04:31:23.721Z,21.35
2024-05-09T04:34:27.529Z,21.72
2024-05-09T04:37:31.705Z,21.54
2024-05-09T04:40:37.408Z,21.80
2024-05-09T04:43:42.185Z,22.03
2024-05-09T04:46:47.700Z,21.72
2024-05-09T04:49:52.606Z,21.99
2024-05-09T04:52:58.358Z,22.20
2024-05-09T04:56:01.949Z,21.96
2024-05-09T04:59:05.877Z,21.93
2024-05-09T05:02:09.239Z,22.17
2024-05-09T05:05:12.673Z,22.16
2024-05-09T05:08:18.650Z,22.45
2024-05-09T05:11:22.620Z,22.69
2024-05-09T05:14:26.571Z,22.55
2024-05-09T05:17:29.950Z,22.48
2024-05-09T05:20:34.483Z,22.28
2024-05-09T05:23:37.999Z,22.14
2024-05-09T05:26:41.658Z,22.24
2024-05-09T05:29:45.929Z,22.17
2024-05-09T05:32:50.391Z,22.20
2024-05-09T05:35:53.626Z,22.25
2024-05-09T05:38:59.873Z,22.43
2024-05-09T05:42:03.501Z,22.37
2024-05-09T05:45:09.655Z,22.38
2024-05-09T05:48:17.283Z,22.03
2024-05-09T05:51:21.535Z,21.61
2024-05-09T05:54:24.766Z,21.59
2024-05-09T05:57:31.518Z,21.71
2024-05-09T06:00:39.222Z,22.01
2024-05-09T06:03:44.310Z,22.22
2024-05-09T06:06:49.423Z,22.21
2024-05-09T06:09:52.632Z,21.97
2024-05-09T06:12:55.701Z,22.22
2024-05-09T06:16:03.048Z,22.20
2024-05-09T06:19:09.919Z,22.01
2024-05-09T06:22:13.430Z,21.76
2024-05-09T06:25:17.294Z,21.71
2024-05-09T06:28:21.299Z,21.71
2024-05-09T06:31:25.412Z,21.54
2024-05-09T06:34:29.396Z,21.44
2024-05-09T06:37:32.575Z,21.34
2024-05-09T06:40:39.108Z,21.45
2024-05-09T06:43:44.148Z,21.42
2024-05-09T06:46:50.595Z,21.20
2024-05-09T06:49:53.686Z,20.96
2024-05-09T06:52:56.955Z,20.96
2024-05-09T06:56:01.988Z,21.03
2024-05-09T06:59:05.846Z,21.01
2024-05-09T07:02:09.065Z,21.10
2024-05-09T07:05:13.300Z,21.26
2024-05-09T07:08:17.347Z,21.27
2024-05-09T07:11:21.603Z,21.39
2024-05-09T07:14:25.674Z,21.46
2024-05-09T07:17:29.619Z,21.46
2024-05-09T07:20:34.962Z,21.48
2024-05-09T07:23:39.374Z,21.39
2024-05-09T07:26:42.597Z,21.46
2024-05-09T07:29:46.261Z,21.62
2024-05-09T07:32:52.166Z,21.67
2024-05-09T07:36:01.230Z,21.73
2024-05-09T07:39:06.365Z,21.73
2024-05-09T07:42:11.320Z,21.86
2024-05-09T07:45:38.935Z,21.94
2024-05-09T07:53:17.402Z,22.22
2024-05-09T07:55:10.411Z,22.07
2024-05-09T07:58:14.042Z,21.92
2024-05-09T08:01:18.442Z,21.90
2024-05-09T08:04:26.720Z,21.99
2024-05-09T08:07:32.182Z,22.14
2024-05-09T08:10:36.137Z,22.31
2024-05-09T08:13:40.078Z,22.45
2024-05-09T08:16:43.965Z,22.55
2024-05-09T08:19:48.599Z,22.37
2024-05-09T08:22:52.939Z,22.21
2024-05-09T08:25:56.667Z,22.06
2024-05-09T08:29:04.122Z,21.99
2024-05-09T08:32:14.057Z,21.96
2024-05-09T08:35:20.199Z,21.90
2024-05-09T08:38:25.278Z,21.94
2024-05-09T08:41:33.565Z,21.97
2024-05-09T08:44:38.618Z,21.82
2024-05-09T08:47:44.106Z,21.72
2024-05-09T08:50:50.893Z,21.66
2024-05-09T08:53:54.390Z,21.86
2024-05-09T08:56:58.193Z,21.85
2024-05-09T09:00:15.015Z,21.86
2024-05-09T09:03:27.467Z,21.69
2024-05-09T09:06:34.023Z,21.71
2024-05-09T09:09:44.408Z,21.73
2024-05-09T09:13:10.060Z,21.79
2024-05-09T09:16:13.842Z,21.75
2024-05-09T09:19:18.510Z,21.67
2024-05-09T09:22:23.089Z,21.62
2024-05-09T09:25:26.357Z,21.30
2024-05-09T09:28:30.560Z,21.18
2024-05-09T09:31:38.172Z,20.96
2024-05-09T09:34:42.253Z,20.77
2024-05-09T09:37:47.237Z,20.59
2024-05-09T09:40:51.493Z,20.53
2024-05-09T09:43:57.898Z,20.57
2024-05-09T09:47:04.292Z,20.77
2024-05-09T09:50:14.211Z,20.79
2024-05-09T09:53:21.763Z,20.77
2024-05-09T09:56:26.279Z,20.65
2024-05-09T09:59:31.161Z,20.55
2024-05-09T10:02:37.286Z,20.45
2024-05-09T10:05:44.013Z,20.32
2024-05-09T10:08:51.990Z,20.24
2024-05-09T10:12:00.374Z,20.04
2024-05-09T10:15:12.402Z,19.89
2024-05-09T10:18:18.549Z,19.73
2024-05-09T10:21:22.713Z,19.58
2024-05-09T10:24:25.969Z,19.44
2024-05-09T10:27:31.111Z,19.44
2024-05-09T10:30:36.368Z,19.36
2024-05-09T10:33:52.318Z,19.32
2024-05-09T10:37:05.072Z,19.34
2024-05-09T10:40:14.258Z,19.32
2024-05-09T10:43:25.847Z,19.35
2024-05-09T10:46:29.228Z,19.29
2024-05-09T10:49:33.332Z,19.21
2024-05-09T10:52:36.587Z,19.06
2024-05-09T10:55:39.982Z,18.93
2024-05-09T10:58:46.519Z,18.83
2024-05-09T11:01:51.307Z,18.77
2024-05-09T11:04:55.963Z,18.76
2024-05-09T11:07:59.501Z,18.73
2024-05-09T11:11:08.477Z,18.70
2024-05-09T11:14:14.136Z,18.69
2024-05-09T11:17:17.424Z,18.66
2024-05-09T11:20:29.105Z,18.62
2024-05-09T11:23:33.080Z,18.57
2024-05-09T11:26:37.226Z,18.45
2024-05-09T11:29:45.395Z,18.37
2024-05-09T11:32:50.422Z,18.32
2024-05-09T11:35:54.524Z,18.24
2024-05-09T11:38:58.459Z,18.18
2024-05-09T11:42:04.585Z,18.11
2024-05-09T11:45:10.481Z,18.07
2024-05-09T11:48:14.730Z,17.97
2024-05-09T11:51:18.467Z,17.91
2024-05-09T11:54:22.262Z,17.83
2024-05-09T11:57:29.070Z,17.83
2024-05-09T12:00:36.994Z,17.79
2024-05-09T12:03:41.627Z,17.74
2024-05-09T12:06:47.257Z,17.76
2024-05-09T12:09:50.615Z,17.73
2024-05-09T12:12:55.443Z,17.72
2024-05-09T12:15:59.680Z,17.69
2024-05-09T12:19:05.726Z,17.69
2024-05-09T12:22:10.016Z,17.66
2024-05-09T12:25:13.859Z,17.62
2024-05-09T12:28:19.257Z,17.57
2024-05-09T12:31:23.109Z,17.56
2024-05-09T12:34:27.225Z,17.53
2024-05-09T12:37:30.618Z,17.50
2024-05-09T12:40:37.078Z,17.39
2024-05-09T12:43:42.774Z,17.35
2024-05-09T12:46:46.064Z,17.31
2024-05-09T12:49:49.380Z,17.21
2024-05-09T12:52:53.094Z,17.18
2024-05-09T12:56:01.614Z,17.11
2024-05-09T12:59:07.981Z,17.07
2024-05-09T13:02:12.694Z,17.03
2024-05-09T13:05:16.972Z,16.93
2024-05-09T13:08:21.168Z,16.88
2024-05-09T13:11:24.971Z,16.84
2024-05-09T13:14:28.937Z,16.81
2024-05-09T13:17:33.900Z,16.80
2024-05-09T13:20:38.077Z,16.77
2024-05-09T13:23:43.806Z,16.81
2024-05-09T13:26:47.326Z,16.80
2024-05-09T13:29:50.560Z,16.81
2024-05-09T13:32:55.436Z,16.81
2024-05-09T13:35:58.599Z,16.84
2024-05-09T13:39:09.792Z,16.84
2024-05-09T13:42:13.757Z,16.79
2024-05-09T13:45:16.905Z,16.77
2024-05-09T13:48:20.339Z,16.72
2024-05-09T13:51:24.708Z,16.70
2024-05-09T13:54:27.749Z,16.63
2024-05-09T13:57:32.812Z,16.60
2024-05-09T14:00:44.680Z,16.57
2024-05-09T14:03:52.232Z,16.53
2024-05-09T14:06:56.147Z,16.59
2024-05-09T14:10:00.638Z,16.65
2024-05-09T14:13:07.448Z,16.59
2024-05-09T14:16:12.258Z,16.51
2024-05-09T14:19:16.811Z,16.46
2024-05-09T14:22:23.796Z,16.42
2024-05-09T14:25:33.115Z,16.41
2024-05-09T14:28:38.978Z,16.39
2024-05-09T14:31:42.199Z,16.36
2024-05-09T14:34:48.084Z,16.36
2024-05-09T14:37:51.297Z,16.44
2024-05-09T14:40:55.763Z,16.48
2024-05-09T14:44:02.472Z,16.46
2024-05-09T14:47:11.205Z,16.42
2024-05-09T14:50:23.687Z,16.36
2024-05-09T14:53:32.000Z,16.28
2024-05-09T14:56:35.874Z,16.22
2024-05-09T14:59:39.801Z,16.18
2024-05-09T15:02:46.560Z,16.18
2024-05-09T15:05:52.394Z,16.15
2024-05-09T15:08:57.718Z,16.10
2024-05-09T15:12:01.881Z,16.02
2024-05-09T15:15:09.030Z,15.98
2024-05-09T15:18:12.674Z,15.94
2024-05-09T15:21:16.676Z,15.86
2024-05-09T15:24:20.674Z,15.84
2024-05-09T15:27:24.138Z,15.79
2024-05-09T15:30:32.102Z,15.69
2024-05-09T15:33:37.691Z,15.59
2024-05-09T15:36:44.600Z,15.48
2024-05-09T15:39:50.326Z,15.46
2024-05-09T15:42:54.176Z,15.40
2024-05-09T15:45:57.399Z,15.32
2024-05-09T15:49:02.335Z,15.25
2024-05-09T15:52:09.635Z,15.14
2024-05-09T15:55:14.415Z,15.05
2024-05-09T15:58:18.637Z,14.98
2024-05-09T16:01:23.172Z,14.85
2024-05-09T16:04:26.924Z,14.76
2024-05-09T16:07:30.535Z,14.60
2024-05-09T16:10:35.013Z,14.52
2024-05-09T16:13:39.962Z,14.39
2024-05-09T16:16:43.813Z,14.33
2024-05-09T16:19:47.532Z,14.26
2024-05-09T16:22:51.926Z,14.17
2024-05-09T16:25:55.540Z,14.08
2024-05-09T16:28:59.632Z,14.00
2024-05-09T16:32:05.768Z,13.88
2024-05-09T16:35:09.368Z,13.78
2024-05-09T16:38:13.640Z,13.69
2024-05-09T16:41:17.473Z,13.57
2024-05-09T16:44:21.181Z,13.45
2024-05-09T16:47:24.690Z,13.39
2024-05-09T16:50:32.295Z,13.30
2024-05-09T16:53:37.796Z,13.25
2024-05-09T16:56:41.312Z,13.18
2024-05-09T16:59:44.474Z,13.14
2024-05-09T17:02:48.249Z,13.11
2024-05-09T17:05:51.889Z,13.04
2024-05-09T17:09:01.975Z,12.98
2024-05-09T17:12:11.169Z,12.91
2024-05-09T17:15:15.046Z,12.91
2024-05-09T17:18:19.192Z,12.88
2024-05-09T17:21:23.422Z,12.87
2024-05-09T17:24:26.661Z,12.84
2024-05-09T17:27:30.412Z,12.83
2024-05-09T17:30:36.830Z,12.81
2024-05-09T17:33:43.913Z,12.81
2024-05-09T17:36:48.256Z,12.85
2024-05-09T17:39:51.767Z,12.88
2024-05-09T17:42:55.758Z,12.87
2024-05-09T17:46:00.196Z,12.83
2024-05-09T17:49:03.826Z,12.81
2024-05-09T17:52:10.792Z,12.77
2024-05-09T17:55:14.852Z,12.68
2024-05-09T17:58:19.689Z,12.66
2024-05-09T18:01:24.809Z,12.56
2024-05-09T18:04:31.102Z,12.42
2024-05-09T18:07:36.341Z,12.30
2024-05-09T18:10:41.967Z,12.25
2024-05-09T18:13:48.155Z,12.12
2024-05-09T18:16:52.492Z,12.01
2024-05-09T18:19:58.061Z,11.85
2024-05-09T18:23:01.529Z,11.67
2024-05-09T18:26:09.306Z,11.50
2024-05-09T18:29:12.734Z,11.40
2024-05-09T18:32:16.538Z,11.36
2024-05-09T18:35:20.761Z,11.26
2024-05-09T18:38:27.399Z,11.22
2024-05-09T18:41:30.946Z,11.23
2024-05-09T18:44:34.819Z,11.14
2024-05-09T18:47:38.408Z,11.02
2024-05-09T18:50:42.522Z,10.95
2024-05-09T18:53:46.043Z,10.91
2024-05-09T18:56:50.231Z,10.88
2024-05-09T18:59:53.894Z,10.74
2024-05-09T19:03:00.385Z,10.59
2024-05-09T19:06:05.037Z,10.46
2024-05-09T19:09:11.949Z,10.42
2024-05-09T19:12:16.308Z,10.46
2024-05-09T19:15:20.191Z,10.29
2024-05-09T19:18:23.608Z,10.15
2024-05-09T19:21:28.010Z,10.06
2024-05-09T19:24:31.404Z,9.95
2024-05-09T19:27:34.805Z,9.85
2024-05-09T19:30:41.702Z,9.75
2024-05-09T19:33:46.811Z,9.67
2024-05-09T19:36:52.573Z,9.54
2024-05-09T19:39:56.486Z,9.50
2024-05-09T19:43:00.446Z,9.43
2024-05-09T19:46:05.070Z,9.46
2024-05-09T19:49:11.707Z,9.43
2024-05-09T19:52:16.732Z,9.32
2024-05-09T19:55:20.121Z,9.15
2024-05-09T19:58:23.499Z,9.16
2024-05-09T20:01:30.622Z,9.02
2024-05-09T20:04:35.046Z,9.02
2024-05-09T20:07:39.356Z,8.98
2024-05-09T20:10:42.650Z,8.85
2024-05-09T20:13:47.071Z,8.80
2024-05-09T20:16:50.945Z,8.68
2024-05-09T20:19:55.623Z,8.63
2024-05-09T20:22:59.610Z,8.66
2024-05-09T20:26:03.115Z,8.64
2024-05-09T20:29:12.448Z,8.61
2024-05-09T20:32:15.810Z,8.57
2024-05-09T20:35:19.939Z,8.56
2024-05-09T20:38:23.458Z,8.57
2024-05-09T20:41:27.039Z,8.52
2024-05-09T20:44:31.205Z,8.43
2024-05-09T20:47:35.118Z,8.47
2024-05-09T20:50:41.454Z,8.49
2024-05-09T20:53:45.808Z,8.52
2024-05-09T20:56:49.044Z,8.46
2024-05-09T20:59:52.983Z,8.45
2024-05-09T21:02:56.510Z,8.46
2024-05-09T21:05:59.735Z,8.56
2024-05-09T21:09:03.663Z,8.53
2024-05-09T21:12:11.647Z,8.52
2024-05-09T21:15:16.044Z,8.43
2024-05-09T21:18:19.186Z,8.49
2024-05-09T21:21:23.224Z,8.52
2024-05-09T21:24:26.275Z,8.36
2024-05-09T21:27:30.247Z,8.22
2024-05-09T21:30:41.272Z,8.22
2024-05-09T21:33:46.796Z,8.16
2024-05-09T21:36:50.593Z,7.99
2024-05-09T21:39:55.156Z,7.77
2024-05-09T21:42:59.332Z,7.70
2024-05-09T21:46:03.496Z,7.64
2024-05-09T21:49:06.585Z,7.59
2024-05-09T21:52:13.282Z,7.39
2024-05-09T21:55:19.719Z,6.95
2024-05-09T21:58:24.671Z,6.91
2024-05-09T22:01:28.625Z,6.73
2024-05-09T22:04:32.934Z,6.62
2024-05-09T22:07:36.278Z,6.52
2024-05-09T22:10:40.684Z,6.43
2024-05-09T22:13:44.468Z,6.33
2024-05-09T22:16:47.825Z,6.29
2024-05-09T22:19:51.378Z,6.15
2024-05-09T22:22:55.641Z,6.17
2024-05-09T22:25:59.518Z,6.12
2024-05-09T22:29:03.510Z,5.98
2024-05-09T22:32:07.268Z,5.90
2024-05-09T22:35:13.916Z,5.71
2024-05-09T22:38:18.095Z,5.56
2024-05-09T22:41:21.567Z,5.67
2024-05-09T22:44:25.954Z,5.49
2024-05-09T22:47:29.142Z,5.52
2024-05-09T22:50:33.732Z,5.38
2024-05-09T22:53:37.853Z,5.22
2024-05-09T22:56:41.740Z,5.19
2024-05-09T22:59:45.668Z,5.02
2024-05-09T23:02:49.314Z,5.12
2024-05-09T23:05:53.216Z,5.19
2024-05-09T23:08:57.545Z,5.25
2024-05-09T23:12:01.574Z,5.35
2024-05-09T23:15:05.549Z,5.32
2024-05-09T23:18:12.102Z,5.27
2024-05-09T23:21:18.945Z,5.27
2024-05-09T23:24:22.614Z,5.19
2024-05-09T23:27:26.475Z,5.07
2024-05-09T23:30:37.347Z,5.12
2024-05-09T23:33:48.202Z,5.17
2024-05-09T23:36:51.784Z,5.27
2024-05-09T23:39:57.177Z,5.24
2024-05-09T23:43:01.071Z,5.27
2024-05-09T23:46:05.939Z,5.24
2024-05-09T23:49:13.096Z,5.35
2024-05-09T23:52:17.668Z,5.31
2024-05-09T23:55:21.090Z,5.17
2024-05-09T23:58:26.748Z,5.01
